Time,TemperatureF,DewpointF,PressureIn,WindDirection,WindDirectionDegrees,WindSpeedMPH,WindSpeedGustMPH,Humidity,HourlyPrecipIn,Conditions,Clouds,dailyrainin,SolarRadiationWatts/m^2,SoftwareType,DateUTC
2013-02-22 00:01:00,37.9,33.5,30.26,North,360,0.0,0.0,84,0.00,,,0.00,0.0,custom,2013-02-22 08:01:00,
2013-02-22 00:06:00,37.7,33.3,30.26,North,360,0.0,0.0,84,0.00,,,0.00,0.0,custom,2013-02-22 08:06:00,
2013-02-22 00:11:00,37.7,33.3,30.26,North,360,0.0,0.0,84,0.00,,,0.00,0.0,custom,2013-02-22 08:11:00,
2013-02-22 00:16:00,37.6,33.5,30.26,North,360,0.0,0.0,85,0.00,,,0.00,0.0,custom,2013-02-22 08:16:00,
2013-02-22 00:21:00,37.6,33.5,30.26,North,360,0.0,0.0,85,0.00,,,0.00,0.0,custom,2013-02-22 08:21:00,
2013-02-22 00:26:00,37.5,33.4,30.27,North,360,0.0,0.0,85,0.00,,,0.00,0.0,custom,2013-02-22 08:26:00,
2013-02-22 00:31:00,37.4,33.3,30.27,North,360,0.0,0.0,85,0.00,,,0.00,0.0,custom,2013-02-22 08:31:00,
2013-02-22 00:36:00,37.3,32.9,30.27,North,360,0.0,0.0,84,0.00,,,0.00,0.0,custom,2013-02-22 08:36:00,
2013-02-22 00:41:00,37.2,32.8,30.27,North,360,0.0,0.0,84,0.00,,,0.00,0.0,custom,2013-02-22 08:41:00,
2013-02-22 00:46:00,37.1,32.7,30.27,North,360,0.0,0.0,84,0.00,,,0.00,0.0,custom,2013-02-22 08:46:00,
2013-02-22 00:51:00,37.0,32.6,30.27,North,360,0.0,0.0,84,0.00,,,0.00,0.0,custom,2013-02-22 08:51:00,
2013-02-22 00:56:00,36.9,32.5,30.27,North,360,0.0,0.0,84,0.00,,,0.00,0.0,custom,2013-02-22 08:56:00,
2013-02-22 01:01:00,36.9,32.5,30.27,North,360,0.0,0.0,84,0.00,,,0.00,0.0,custom,2013-02-22 09:01:00,
2013-02-22 01:11:00,36.6,32.5,30.27,North,360,0.0,0.0,85,0.00,,,0.00,0.0,custom,2013-02-22 09:11:00,
2013-02-22 01:16:00,36.4,32.3,30.27,North,360,0.0,0.0,85,0.00,,,0.00,0.0,custom,2013-02-22 09:16:00,
2013-02-22 01:21:00,36.3,32.2,30.27,North,360,0.0,0.0,85,0.00,,,0.00,0.0,custom,2013-02-22 09:21:00,
2013-02-22 01:26:00,36.2,32.4,30.27,North,360,0.0,0.0,86,0.00,,,0.00,0.0,custom,2013-02-22 09:26:00,
2013-02-22 01:31:00,36.1,32.3,30.27,North,360,0.0,0.0,86,0.00,,,0.00,0.0,custom,2013-02-22 09:31:00,
2013-02-22 01:36:00,36.0,31.9,30.27,North,360,0.0,0.0,85,0.00,,,0.00,0.0,custom,2013-02-22 09:36:00,
2013-02-22 01:41:00,35.9,31.8,30.27,North,360,0.0,0.0,85,0.00,,,0.00,0.0,custom,2013-02-22 09:41:00,
2013-02-22 01:46:00,35.7,31.6,30.27,North,360,0.0,0.0,85,0.00,,,0.00,0.0,custom,2013-02-22 09:46:00,
2013-02-22 01:51:00,35.7,31.9,30.27,North,360,0.0,0.0,86,0.00,,,0.00,0.0,custom,2013-02-22 09:51:00,
2013-02-22 01:56:00,35.6,31.8,30.27,North,360,0.0,0.0,86,0.00,,,0.00,0.0,custom,2013-02-22 09:56:00,
2013-02-22 02:01:00,35.5,31.7,30.27,North,360,0.0,0.0,86,0.00,,,0.00,0.0,custom,2013-02-22 10:01:00,
2013-02-22 02:06:00,35.4,31.6,30.27,North,360,0.0,0.0,86,0.00,,,0.00,0.0,custom,2013-02-22 10:06:00,
2013-02-22 02:11:00,35.3,31.2,30.28,North,360,0.0,0.0,85,0.00,,,0.00,0.0,custom,2013-02-22 10:11:00,
2013-02-22 02:16:00,35.3,31.5,30.27,North,360,0.0,0.0,86,0.00,,,0.00,0.0,custom,2013-02-22 10:16:00,
2013-02-22 02:21:00,35.2,31.4,30.27,North,360,0.0,0.0,86,0.00,,,0.00,0.0,custom,2013-02-22 10:21:00,
2013-02-22 02:26:00,35.2,31.4,30.27,North,360,0.0,0.0,86,0.00,,,0.00,0.0,custom,2013-02-22 10:26:00,
2013-02-22 02:31:00,35.1,31.3,30.27,North,360,0.0,0.0,86,0.00,,,0.00,0.0,custom,2013-02-22 10:31:00,
2013-02-22 02:36:00,35.0,31.2,30.27,North,360,0.0,0.0,86,0.00,,,0.00,0.0,custom,2013-02-22 10:36:00,
2013-02-22 02:41:00,35.0,31.2,30.27,North,360,0.0,0.0,86,0.00,,,0.00,0.0,custom,2013-02-22 10:41:00,
2013-02-22 02:46:00,34.9,31.1,30.27,North,360,0.0,0.0,86,0.00,,,0.00,0.0,custom,2013-02-22 10:46:00,
2013-02-22 02:51:00,34.9,31.1,30.27,North,360,0.0,0.0,86,0.00,,,0.00,0.0,custom,2013-02-22 10:51:00,
2013-02-22 02:56:00,34.8,31.0,30.27,North,360,0.0,0.0,86,0.00,,,0.00,0.0,custom,2013-02-22 10:56:00,
2013-02-22 03:01:00,34.7,31.2,30.27,North,360,0.0,0.0,87,0.00,,,0.00,0.0,custom,2013-02-22 11:01:00,
2013-02-22 03:06:00,34.6,31.1,30.27,North,360,0.0,0.0,87,0.00,,,0.00,0.0,custom,2013-02-22 11:06:00,
2013-02-22 03:11:00,34.5,31.0,30.27,North,360,0.0,0.0,87,0.00,,,0.00,0.0,custom,2013-02-22 11:11:00,
2013-02-22 03:16:00,34.4,30.9,30.27,North,360,0.0,0.0,87,0.00,,,0.00,0.0,custom,2013-02-22 11:16:00,
2013-02-22 03:21:00,34.4,30.9,30.27,North,360,0.0,0.0,87,0.00,,,0.00,0.0,custom,2013-02-22 11:21:00,
2013-02-22 03:26:00,34.4,30.9,30.26,North,360,0.0,0.0,87,0.00,,,0.00,0.0,custom,2013-02-22 11:26:00,
2013-02-22 03:31:00,34.4,30.9,30.27,North,360,0.0,0.0,87,0.00,,,0.00,0.0,custom,2013-02-22 11:31:00,
2013-02-22 03:36:00,34.4,30.9,30.27,North,360,0.0,0.0,87,0.00,,,0.00,0.0,custom,2013-02-22 11:36:00,
2013-02-22 03:41:00,34.4,30.9,30.27,North,360,0.0,0.0,87,0.00,,,0.00,0.0,custom,2013-02-22 11:41:00,
2013-02-22 03:46:00,34.4,30.9,30.27,North,360,0.0,0.0,87,0.00,,,0.00,0.0,custom,2013-02-22 11:46:00,
2013-02-22 03:51:00,34.4,30.9,30.28,North,360,0.0,0.0,87,0.00,,,0.00,0.0,custom,2013-02-22 11:51:00,
2013-02-22 03:56:00,34.3,30.8,30.28,North,360,0.0,0.0,87,0.00,,,0.00,0.0,custom,2013-02-22 11:56:00,
2013-02-22 04:01:00,34.3,31.1,30.27,North,360,0.0,0.0,88,0.00,,,0.00,0.0,custom,2013-02-22 12:01:00,
2013-02-22 04:06:00,34.3,31.1,30.27,North,360,0.0,0.0,88,0.00,,,0.00,0.0,custom,2013-02-22 12:06:00,
2013-02-22 04:11:00,34.3,31.1,30.27,North,360,0.0,0.0,88,0.00,,,0.00,0.0,custom,2013-02-22 12:11:00,
2013-02-22 04:16:00,34.2,31.0,30.28,North,360,0.0,0.0,88,0.00,,,0.00,0.0,custom,2013-02-22 12:16:00,
2013-02-22 04:21:00,34.2,31.0,30.28,North,360,0.0,0.0,88,0.00,,,0.00,0.0,custom,2013-02-22 12:21:00,
2013-02-22 04:26:00,34.1,30.9,30.28,North,360,0.0,0.0,88,0.00,,,0.00,0.0,custom,2013-02-22 12:26:00,
2013-02-22 04:31:00,34.1,30.9,30.28,North,360,0.0,0.0,88,0.00,,,0.00,0.0,custom,2013-02-22 12:31:00,
2013-02-22 04:36:00,34.1,30.9,30.28,North,360,0.0,0.0,88,0.00,,,0.00,0.0,custom,2013-02-22 12:36:00,
2013-02-22 04:41:00,34.1,30.9,30.29,North,360,0.0,0.0,88,0.00,,,0.00,0.0,custom,2013-02-22 12:41:00,
2013-02-22 04:46:00,34.0,30.8,30.29,North,360,0.0,0.0,88,0.00,,,0.00,0.0,custom,2013-02-22 12:46:00,
2013-02-22 04:51:00,33.9,30.7,30.29,North,360,0.0,0.0,88,0.00,,,0.00,0.0,custom,2013-02-22 12:51:00,
2013-02-22 04:56:00,33.9,30.7,30.29,North,360,0.0,0.0,88,0.00,,,0.00,0.0,custom,2013-02-22 12:56:00,
2013-02-22 05:01:00,33.9,30.7,30.29,North,360,0.0,0.0,88,0.00,,,0.00,0.0,custom,2013-02-22 13:01:00,
2013-02-22 05:06:00,33.9,30.7,30.29,North,360,0.0,0.0,88,0.00,,,0.00,0.0,custom,2013-02-22 13:06:00,
2013-02-22 05:11:00,33.8,30.6,30.29,North,360,0.0,0.0,88,0.00,,,0.00,0.0,custom,2013-02-22 13:11:00,
2013-02-22 05:16:00,33.7,30.5,30.29,North,360,0.0,0.0,88,0.00,,,0.00,0.0,custom,2013-02-22 13:16:00,
2013-02-22 05:21:00,33.7,30.5,30.29,North,360,0.0,0.0,88,0.00,,,0.00,0.0,custom,2013-02-22 13:21:00,
2013-02-22 05:26:00,33.6,30.4,30.28,North,360,0.0,0.0,88,0.00,,,0.00,0.0,custom,2013-02-22 13:26:00,
2013-02-22 05:31:00,33.5,30.3,30.28,North,360,0.0,0.0,88,0.00,,,0.00,0.0,custom,2013-02-22 13:31:00,
2013-02-22 05:36:00,33.4,30.2,30.29,North,360,0.0,0.0,88,0.00,,,0.00,0.0,custom,2013-02-22 13:36:00,
2013-02-22 05:41:00,33.4,30.2,30.30,North,360,0.0,0.0,88,0.00,,,0.00,0.0,custom,2013-02-22 13:41:00,
2013-02-22 05:46:00,33.5,30.3,30.30,North,360,0.0,0.0,88,0.00,,,0.00,0.0,custom,2013-02-22 13:46:00,
2013-02-22 05:51:00,33.5,30.3,30.30,North,360,0.0,0.0,88,0.00,,,0.00,0.0,custom,2013-02-22 13:51:00,
2013-02-22 05:56:00,33.6,30.4,30.30,North,360,0.0,0.0,88,0.00,,,0.00,0.0,custom,2013-02-22 13:56:00,
2013-02-22 06:01:00,33.7,30.5,30.30,North,360,0.0,0.0,88,0.00,,,0.00,0.0,custom,2013-02-22 14:01:00,
2013-02-22 06:06:00,33.6,30.4,30.30,North,360,0.0,0.0,88,0.00,,,0.00,0.0,custom,2013-02-22 14:06:00,
2013-02-22 06:11:00,33.5,30.3,30.31,North,360,0.0,0.0,88,0.00,,,0.00,0.0,custom,2013-02-22 14:11:00,
2013-02-22 06:16:00,33.4,30.2,30.31,North,360,0.0,0.0,88,0.00,,,0.00,0.0,custom,2013-02-22 14:16:00,
2013-02-22 06:21:00,33.4,30.2,30.32,North,360,0.0,0.0,88,0.00,,,0.00,0.0,custom,2013-02-22 14:21:00,
2013-02-22 06:26:00,33.4,30.5,30.31,North,360,0.0,0.0,89,0.00,,,0.00,0.0,custom,2013-02-22 14:26:00,
2013-02-22 06:31:00,33.3,30.4,30.31,North,360,0.0,0.0,89,0.00,,,0.00,0.0,custom,2013-02-22 14:31:00,
2013-02-22 06:36:00,33.3,30.4,30.31,North,360,0.0,0.0,89,0.00,,,0.00,0.0,custom,2013-02-22 14:36:00,
2013-02-22 06:41:00,33.3,30.4,30.32,North,360,0.0,0.0,89,0.00,,,0.00,0.0,custom,2013-02-22 14:41:00,
2013-02-22 06:46:00,33.2,30.3,30.32,North,360,0.0,0.0,89,0.00,,,0.00,0.0,custom,2013-02-22 14:46:00,
2013-02-22 06:51:00,33.2,30.3,30.32,North,360,0.0,0.0,89,0.00,,,0.00,5.0,custom,2013-02-22 14:51:00,
2013-02-22 06:56:00,33.3,30.4,30.32,North,360,0.0,0.0,89,0.00,,,0.00,9.0,custom,2013-02-22 14:56:00,
2013-02-22 07:01:00,33.4,30.5,30.32,North,360,0.0,0.0,89,0.00,,,0.00,12.0,custom,2013-02-22 15:01:00,
2013-02-22 07:06:00,33.4,30.5,30.32,North,360,0.0,0.0,89,0.00,,,0.00,16.0,custom,2013-02-22 15:06:00,
2013-02-22 07:11:00,33.4,30.5,30.32,North,360,0.0,0.0,89,0.00,,,0.00,19.0,custom,2013-02-22 15:11:00,
2013-02-22 07:16:00,33.5,30.6,30.32,North,360,0.0,0.0,89,0.00,,,0.00,21.0,custom,2013-02-22 15:16:00,
2013-02-22 07:21:00,33.7,30.8,30.32,North,360,0.0,0.0,89,0.00,,,0.00,25.0,custom,2013-02-22 15:21:00,
2013-02-22 07:26:00,33.8,30.9,30.33,North,360,0.0,0.0,89,0.00,,,0.00,26.0,custom,2013-02-22 15:26:00,
2013-02-22 07:31:00,33.9,31.0,30.33,North,360,0.0,0.0,89,0.00,,,0.00,39.0,custom,2013-02-22 15:31:00,
2013-02-22 07:36:00,34.1,31.2,30.33,North,360,0.0,0.0,89,0.00,,,0.00,32.0,custom,2013-02-22 15:36:00,
2013-02-22 07:41:00,34.4,31.2,30.34,North,360,0.0,0.0,88,0.00,,,0.00,33.0,custom,2013-02-22 15:41:00,
2013-02-22 07:46:00,34.8,31.6,30.34,North,360,0.0,0.0,88,0.00,,,0.00,46.0,custom,2013-02-22 15:46:00,
2013-02-22 07:51:00,35.3,32.1,30.34,North,360,0.0,0.0,88,0.00,,,0.00,39.0,custom,2013-02-22 15:51:00,
2013-02-22 07:56:00,35.7,32.5,30.34,North,360,0.0,0.0,88,0.00,,,0.00,97.0,custom,2013-02-22 15:56:00,
2013-02-22 08:01:00,36.3,33.1,30.34,North,360,0.0,0.0,88,0.00,,,0.00,72.0,custom,2013-02-22 16:01:00,
2013-02-22 08:06:00,37.0,33.5,30.34,North,360,0.0,0.0,87,0.00,,,0.00,90.0,custom,2013-02-22 16:06:00,
2013-02-22 08:11:00,38.0,34.5,30.34,North,360,0.0,0.0,87,0.00,,,0.00,132.0,custom,2013-02-22 16:11:00,
2013-02-22 08:16:00,39.2,35.9,30.34,North,360,0.0,0.0,88,0.00,,,0.00,176.0,custom,2013-02-22 16:16:00,
2013-02-22 08:21:00,40.1,36.8,30.34,North,360,0.0,0.0,88,0.00,,,0.00,113.0,custom,2013-02-22 16:21:00,
2013-02-22 08:26:00,41.1,37.5,30.34,North,360,0.0,0.0,87,0.00,,,0.00,181.0,custom,2013-02-22 16:26:00,
2013-02-22 08:31:00,42.4,37.3,30.34,NNE,17,0.0,0.0,82,0.00,,,0.00,125.0,custom,2013-02-22 16:31:00,
2013-02-22 08:36:00,43.5,37.7,30.34,NNE,17,0.0,1.0,80,0.00,,,0.00,125.0,custom,2013-02-22 16:36:00,
2013-02-22 08:41:00,44.4,37.6,30.34,NNE,15,0.0,2.0,77,0.00,,,0.00,199.0,custom,2013-02-22 16:41:00,
2013-02-22 08:46:00,45.0,37.6,30.34,NNE,17,0.0,1.0,75,0.00,,,0.00,113.0,custom,2013-02-22 16:46:00,
2013-02-22 08:51:00,45.6,38.1,30.34,NNE,17,0.0,0.0,75,0.00,,,0.00,123.0,custom,2013-02-22 16:51:00,
2013-02-22 08:56:00,46.3,38.1,30.34,NNE,17,0.0,0.0,73,0.00,,,0.00,162.0,custom,2013-02-22 16:56:00,
2013-02-22 09:01:00,46.9,38.0,30.34,NNE,17,0.0,0.0,71,0.00,,,0.00,176.0,custom,2013-02-22 17:01:00,
2013-02-22 09:06:00,47.4,38.5,30.33,NNE,17,0.0,0.0,71,0.00,,,0.00,204.0,custom,2013-02-22 17:06:00,
2013-02-22 09:11:00,48.1,38.8,30.33,NNE,17,0.0,0.0,70,0.00,,,0.00,221.0,custom,2013-02-22 17:11:00,
2013-02-22 09:16:00,48.7,39.0,30.33,NNE,17,0.0,1.0,69,0.00,,,0.00,88.0,custom,2013-02-22 17:16:00,
2013-02-22 09:21:00,49.2,38.7,30.33,NNE,17,0.0,0.0,67,0.00,,,0.00,72.0,custom,2013-02-22 17:21:00,
2013-02-22 09:26:00,49.7,38.8,30.33,NNE,17,0.0,1.0,66,0.00,,,0.00,81.0,custom,2013-02-22 17:26:00,
2013-02-22 09:31:00,50.3,39.0,30.33,NNE,17,0.0,0.0,65,0.00,,,0.00,255.0,custom,2013-02-22 17:31:00,
2013-02-22 09:36:00,50.9,39.6,30.33,NNE,17,0.0,0.0,65,0.00,,,0.00,188.0,custom,2013-02-22 17:36:00,
2013-02-22 09:41:00,51.5,39.3,30.33,NNE,17,0.0,0.0,63,0.00,,,0.00,290.0,custom,2013-02-22 17:41:00,
2013-02-22 09:51:00,52.4,39.8,30.34,NNE,17,0.0,0.0,62,0.00,,,0.00,294.0,custom,2013-02-22 17:51:00,
2013-02-22 09:56:00,53.0,39.9,30.33,NNE,17,0.0,0.0,61,0.00,,,0.00,294.0,custom,2013-02-22 17:56:00,
2013-02-22 10:01:00,53.6,39.6,30.33,NNE,17,0.0,0.0,59,0.00,,,0.00,399.0,custom,2013-02-22 18:01:00,
2013-02-22 10:06:00,54.1,40.1,30.33,NNE,17,0.0,0.0,59,0.00,,,0.00,432.0,custom,2013-02-22 18:06:00,
2013-02-22 10:11:00,54.8,40.7,30.33,NNE,26,0.0,1.0,59,0.00,,,0.00,429.0,custom,2013-02-22 18:11:00,
2013-02-22 10:16:00,55.5,40.5,30.33,NNE,26,1.0,0.0,57,0.00,,,0.00,548.0,custom,2013-02-22 18:16:00,
2013-02-22 10:21:00,56.2,40.7,30.33,NNE,26,1.0,0.0,56,0.00,,,0.00,568.0,custom,2013-02-22 18:21:00,
2013-02-22 10:26:00,56.8,40.8,30.33,WNW,300,0.0,0.0,55,0.00,,,0.00,571.0,custom,2013-02-22 18:26:00,
2013-02-22 10:31:00,57.4,40.9,30.33,North,11,1.0,0.0,54,0.00,,,0.00,578.0,custom,2013-02-22 18:31:00,
2013-02-22 10:36:00,57.9,40.9,30.33,North,350,1.0,0.0,53,0.00,,,0.00,585.0,custom,2013-02-22 18:36:00,
2013-02-22 10:41:00,58.4,40.8,30.33,NNW,345,1.0,0.0,52,0.00,,,0.00,615.0,custom,2013-02-22 18:41:00,
2013-02-22 10:46:00,59.0,40.9,30.33,North,349,1.0,0.0,51,0.00,,,0.00,617.0,custom,2013-02-22 18:46:00,
2013-02-22 10:51:00,59.5,40.3,30.33,WNW,285,1.0,0.0,49,0.00,,,0.00,592.0,custom,2013-02-22 18:51:00,
2013-02-22 10:56:00,59.9,41.2,30.33,NNW,338,1.0,0.0,50,0.00,,,0.00,592.0,custom,2013-02-22 18:56:00,
2013-02-22 11:01:00,60.2,41.0,30.33,North,360,1.0,0.0,49,0.00,,,0.00,612.0,custom,2013-02-22 19:01:00,
2013-02-22 11:06:00,60.3,40.5,30.33,NW,326,1.0,1.0,48,0.00,,,0.00,633.0,custom,2013-02-22 19:06:00,
2013-02-22 11:11:00,60.5,40.2,30.33,NW,306,1.0,0.0,47,0.00,,,0.00,633.0,custom,2013-02-22 19:11:00,
2013-02-22 11:16:00,60.8,40.4,30.33,North,355,1.0,2.0,47,0.00,,,0.00,640.0,custom,2013-02-22 19:16:00,
2013-02-22 11:21:00,60.8,41.0,30.33,NNE,19,1.0,1.0,48,0.00,,,0.00,659.0,custom,2013-02-22 19:21:00,
2013-02-22 11:26:00,60.8,39.9,30.33,NNE,15,1.0,2.0,46,0.00,,,0.00,661.0,custom,2013-02-22 19:26:00,
2013-02-22 11:31:00,60.8,39.3,30.33,NNE,19,1.0,1.0,45,0.00,,,0.00,673.0,custom,2013-02-22 19:31:00,
2013-02-22 11:36:00,61.0,39.5,30.32,NNE,26,1.0,0.0,45,0.00,,,0.00,680.0,custom,2013-02-22 19:36:00,
2013-02-22 11:41:00,61.4,39.9,30.32,NNE,19,0.0,2.0,45,0.00,,,0.00,671.0,custom,2013-02-22 19:41:00,
2013-02-22 11:46:00,61.5,37.6,30.32,NNW,344,1.0,2.0,41,0.00,,,0.00,680.0,custom,2013-02-22 19:46:00,
2013-02-22 11:51:00,61.6,38.9,30.32,NW,322,1.0,1.0,43,0.00,,,0.00,686.0,custom,2013-02-22 19:51:00,
2013-02-22 11:56:00,62.0,38.6,30.32,NNW,332,1.0,0.0,42,0.00,,,0.00,691.0,custom,2013-02-22 19:56:00,
2013-02-22 12:01:00,62.5,37.8,30.32,NNW,327,0.0,0.0,40,0.00,,,0.00,696.0,custom,2013-02-22 20:01:00,
2013-02-22 12:06:00,62.9,38.2,30.31,NW,325,0.0,2.0,40,0.00,,,0.00,698.0,custom,2013-02-22 20:06:00,
2013-02-22 12:11:00,63.0,38.3,30.31,North,11,1.0,0.0,40,0.00,,,0.00,731.0,custom,2013-02-22 20:11:00,
2013-02-22 12:16:00,63.1,39.0,30.31,North,360,1.0,1.0,41,0.00,,,0.00,867.0,custom,2013-02-22 20:16:00,
2013-02-22 12:21:00,63.4,38.7,30.30,NNW,341,1.0,0.0,40,0.00,,,0.00,281.0,custom,2013-02-22 20:21:00,
2013-02-22 12:26:00,63.4,39.3,30.30,NE,34,0.0,1.0,41,0.00,,,0.00,726.0,custom,2013-02-22 20:26:00,
2013-02-22 12:31:00,63.4,38.7,30.30,SSE,165,0.0,1.0,40,0.00,,,0.00,705.0,custom,2013-02-22 20:31:00,
2013-02-22 12:36:00,63.6,40.1,30.30,NNE,19,1.0,3.0,42,0.00,,,0.00,687.0,custom,2013-02-22 20:36:00,
2013-02-22 12:41:00,63.6,40.1,30.30,WNW,296,1.0,0.0,42,0.00,,,0.00,684.0,custom,2013-02-22 20:41:00,
2013-02-22 12:46:00,63.8,39.0,30.30,North,360,1.0,5.0,40,0.00,,,0.00,682.0,custom,2013-02-22 20:46:00,
2013-02-22 12:51:00,63.6,39.5,30.30,NE,52,2.0,0.0,41,0.00,,,0.00,682.0,custom,2013-02-22 20:51:00,
2013-02-22 12:56:00,63.6,38.2,30.30,NNE,14,2.0,4.0,39,0.00,,,0.00,677.0,custom,2013-02-22 20:56:00,
2013-02-22 13:01:00,63.6,37.5,30.30,NNW,339,2.0,2.0,38,0.00,,,0.00,675.0,custom,2013-02-22 21:01:00,
2013-02-22 13:06:00,63.5,38.7,30.30,NNW,341,2.0,0.0,40,0.00,,,0.00,670.0,custom,2013-02-22 21:06:00,
2013-02-22 13:11:00,63.4,38.7,30.30,WNW,297,2.0,2.0,40,0.00,,,0.00,664.0,custom,2013-02-22 21:11:00,
2013-02-22 13:16:00,63.4,38.7,30.29,North,360,2.0,0.0,40,0.00,,,0.00,657.0,custom,2013-02-22 21:16:00,
2013-02-22 13:21:00,63.5,38.7,30.29,NW,318,2.0,4.0,40,0.00,,,0.00,656.0,custom,2013-02-22 21:21:00,
2013-02-22 13:26:00,63.5,37.4,30.28,NW,317,2.0,2.0,38,0.00,,,0.00,645.0,custom,2013-02-22 21:26:00,
2013-02-22 13:31:00,63.4,38.7,30.28,NNW,334,2.0,2.0,40,0.00,,,0.00,640.0,custom,2013-02-22 21:31:00,
2013-02-22 13:36:00,63.4,39.3,30.28,NNW,344,2.0,2.0,41,0.00,,,0.00,631.0,custom,2013-02-22 21:36:00,
2013-02-22 13:41:00,63.5,38.1,30.27,NNW,347,1.0,2.0,39,0.00,,,0.00,624.0,custom,2013-02-22 21:41:00,
2013-02-22 13:46:00,63.5,37.4,30.27,NNW,346,1.0,3.0,38,0.00,,,0.00,615.0,custom,2013-02-22 21:46:00,
2013-02-22 13:51:00,63.4,38.7,30.27,North,10,2.0,2.0,40,0.00,,,0.00,605.0,custom,2013-02-22 21:51:00,
2013-02-22 13:56:00,63.5,38.7,30.27,NNW,342,3.0,3.0,40,0.00,,,0.00,599.0,custom,2013-02-22 21:56:00,
2013-02-22 14:01:00,63.5,40.0,30.27,NNE,14,2.0,3.0,42,0.00,,,0.00,587.0,custom,2013-02-22 22:01:00,
2013-02-22 14:06:00,63.5,40.6,30.27,NNW,333,2.0,4.0,43,0.00,,,0.00,578.0,custom,2013-02-22 22:06:00,
2013-02-22 14:11:00,63.5,41.2,30.27,WNW,302,2.0,0.0,44,0.00,,,0.00,566.0,custom,2013-02-22 22:11:00,
2013-02-22 14:16:00,63.5,41.2,30.27,WNW,302,2.0,0.0,44,0.00,,,0.00,554.0,custom,2013-02-22 22:16:00,
2013-02-22 14:21:00,63.5,41.8,30.26,NW,322,2.0,0.0,45,0.00,,,0.00,541.0,custom,2013-02-22 22:21:00,
2013-02-22 14:26:00,63.5,41.8,30.26,North,350,2.0,4.0,45,0.00,,,0.00,524.0,custom,2013-02-22 22:26:00,
2013-02-22 14:31:00,63.3,42.2,30.26,NE,38,2.0,2.0,46,0.00,,,0.00,515.0,custom,2013-02-22 22:31:00,
2013-02-22 14:36:00,63.1,42.0,30.26,NNE,15,2.0,3.0,46,0.00,,,0.00,499.0,custom,2013-02-22 22:36:00,
2013-02-22 14:41:00,62.8,41.7,30.26,North,10,2.0,3.0,46,0.00,,,0.00,364.0,custom,2013-02-22 22:41:00,
2013-02-22 14:46:00,62.6,41.5,30.26,NNE,33,2.0,4.0,46,0.00,,,0.00,220.0,custom,2013-02-22 22:46:00,
2013-02-22 14:51:00,62.5,40.9,30.26,NE,34,2.0,2.0,45,0.00,,,0.00,79.0,custom,2013-02-22 22:51:00,
2013-02-22 14:56:00,62.3,40.7,30.26,NNW,332,2.0,0.0,45,0.00,,,0.00,137.0,custom,2013-02-22 22:56:00,
2013-02-22 15:01:00,62.3,40.7,30.27,NW,316,2.0,5.0,45,0.00,,,0.00,60.0,custom,2013-02-22 23:01:00,
2013-02-22 15:06:00,62.2,41.2,30.27,NE,51,2.0,0.0,46,0.00,,,0.00,322.0,custom,2013-02-22 23:06:00,
2013-02-22 15:11:00,62.1,41.1,30.27,NNW,348,2.0,0.0,46,0.00,,,0.00,230.0,custom,2013-02-22 23:11:00,
2013-02-22 15:16:00,62.0,40.4,30.27,NE,40,2.0,2.0,45,0.00,,,0.00,394.0,custom,2013-02-22 23:16:00,
2013-02-22 15:21:00,61.9,40.3,30.27,NNE,33,2.0,2.0,45,0.00,,,0.00,316.0,custom,2013-02-22 23:21:00,
2013-02-22 15:26:00,61.8,40.8,30.27,North,10,1.0,0.0,46,0.00,,,0.00,54.0,custom,2013-02-22 23:26:00,
2013-02-22 15:31:00,61.7,40.7,30.27,ESE,111,1.0,2.0,46,0.00,,,0.00,104.0,custom,2013-02-22 23:31:00,
2013-02-22 15:36:00,61.6,41.2,30.26,NE,54,1.0,0.0,47,0.00,,,0.00,134.0,custom,2013-02-22 23:36:00,
2013-02-22 15:41:00,61.6,41.2,30.26,North,9,0.0,0.0,47,0.00,,,0.00,51.0,custom,2013-02-22 23:41:00,
2013-02-22 15:46:00,61.6,41.2,30.26,NNE,16,0.0,0.0,47,0.00,,,0.00,79.0,custom,2013-02-22 23:46:00,
2013-02-22 15:51:00,61.5,41.6,30.26,NNW,339,0.0,0.0,48,0.00,,,0.00,42.0,custom,2013-02-22 23:51:00,
2013-02-22 15:56:00,61.5,41.6,30.25,NNW,339,0.0,2.0,48,0.00,,,0.00,44.0,custom,2013-02-22 23:56:00,
2013-02-22 16:01:00,61.5,42.2,30.26,North,360,0.0,0.0,49,0.00,,,0.00,42.0,custom,2013-02-23 00:01:00,
2013-02-22 16:06:00,61.5,41.6,30.26,North,5,1.0,0.0,48,0.00,,,0.00,54.0,custom,2013-02-23 00:06:00,
2013-02-22 16:11:00,61.4,42.6,30.26,NNE,13,0.0,0.0,50,0.00,,,0.00,47.0,custom,2013-02-23 00:11:00,
2013-02-22 16:16:00,61.5,42.2,30.26,NNE,13,0.0,0.0,49,0.00,,,0.00,84.0,custom,2013-02-23 00:16:00,
2013-02-22 16:21:00,61.6,42.3,30.26,NNE,13,0.0,0.0,49,0.00,,,0.00,200.0,custom,2013-02-23 00:21:00,
2013-02-22 16:26:00,61.7,42.3,30.26,NNE,13,0.0,0.0,49,0.00,,,0.00,65.0,custom,2013-02-23 00:26:00,
2013-02-22 16:31:00,62.0,41.5,30.26,NNE,13,0.0,0.0,47,0.00,,,0.00,93.0,custom,2013-02-23 00:31:00,
2013-02-22 16:36:00,62.3,38.3,30.26,North,350,0.0,1.0,41,0.00,,,0.00,84.0,custom,2013-02-23 00:36:00,
2013-02-22 16:41:00,62.2,36.9,30.26,North,350,1.0,0.0,39,0.00,,,0.00,72.0,custom,2013-02-23 00:41:00,
2013-02-22 16:46:00,61.9,36.7,30.26,WNW,292,1.0,2.0,39,0.00,,,0.00,81.0,custom,2013-02-23 00:46:00,
2013-02-22 16:51:00,61.6,37.0,30.27,West,277,1.0,0.0,40,0.00,,,0.00,49.0,custom,2013-02-23 00:51:00,
2013-02-22 16:56:00,61.1,37.2,30.26,North,355,1.0,0.0,41,0.00,,,0.00,37.0,custom,2013-02-23 00:56:00,
2013-02-22 17:01:00,60.5,37.3,30.26,NW,318,1.0,0.0,42,0.00,,,0.00,26.0,custom,2013-02-23 01:01:00,
2013-02-22 17:06:00,60.0,37.4,30.26,NNW,339,1.0,2.0,43,0.00,,,0.00,26.0,custom,2013-02-23 01:06:00,
2013-02-22 17:11:00,59.5,37.6,30.26,NW,311,1.0,0.0,44,0.00,,,0.00,25.0,custom,2013-02-23 01:11:00,
2013-02-22 17:16:00,59.0,37.7,30.27,WNW,300,1.0,1.0,45,0.00,,,0.00,23.0,custom,2013-02-23 01:16:00,
2013-02-22 17:21:00,58.7,38.0,30.27,WNW,291,1.0,0.0,46,0.00,,,0.00,21.0,custom,2013-02-23 01:21:00,
2013-02-22 17:26:00,58.2,38.1,30.27,WNW,287,1.0,0.0,47,0.00,,,0.00,18.0,custom,2013-02-23 01:26:00,
2013-02-22 17:31:00,57.7,38.1,30.27,NW,315,1.0,1.0,48,0.00,,,0.00,14.0,custom,2013-02-23 01:31:00,
2013-02-22 17:36:00,57.2,38.2,30.27,North,9,1.0,1.0,49,0.00,,,0.00,11.0,custom,2013-02-23 01:36:00,
2013-02-22 17:41:00,56.8,38.9,30.26,North,5,1.0,0.0,51,0.00,,,0.00,9.0,custom,2013-02-23 01:41:00,
2013-02-22 17:46:00,56.5,38.6,30.27,North,5,0.0,0.0,51,0.00,,,0.00,7.0,custom,2013-02-23 01:46:00,
2013-02-22 17:51:00,56.1,38.7,30.27,North,5,0.0,0.0,52,0.00,,,0.00,5.0,custom,2013-02-23 01:51:00,
2013-02-22 17:56:00,55.7,39.3,30.27,North,360,0.0,0.0,54,0.00,,,0.00,0.0,custom,2013-02-23 01:56:00,
2013-02-22 18:01:00,55.2,38.8,30.27,North,5,0.0,0.0,54,0.00,,,0.00,0.0,custom,2013-02-23 02:01:00,
2013-02-22 18:06:00,54.8,38.9,30.27,North,360,0.0,0.0,55,0.00,,,0.00,0.0,custom,2013-02-23 02:06:00,
2013-02-22 18:11:00,54.4,39.0,30.27,North,360,0.0,0.0,56,0.00,,,0.00,0.0,custom,2013-02-23 02:11:00,
2013-02-22 18:16:00,54.0,39.1,30.27,North,5,0.0,0.0,57,0.00,,,0.00,0.0,custom,2013-02-23 02:16:00,
2013-02-22 18:21:00,53.7,39.3,30.28,North,5,0.0,0.0,58,0.00,,,0.00,0.0,custom,2013-02-23 02:21:00,
2013-02-22 18:26:00,53.3,39.3,30.27,North,5,0.0,0.0,59,0.00,,,0.00,0.0,custom,2013-02-23 02:26:00,
2013-02-22 18:31:00,52.9,39.4,30.27,North,360,0.0,0.0,60,0.00,,,0.00,0.0,custom,2013-02-23 02:31:00,
2013-02-22 18:36:00,52.5,39.4,30.27,North,5,0.0,0.0,61,0.00,,,0.00,0.0,custom,2013-02-23 02:36:00,
2013-02-22 18:41:00,52.2,39.2,30.28,North,5,0.0,0.0,61,0.00,,,0.00,0.0,custom,2013-02-23 02:41:00,
2013-02-22 18:46:00,51.8,39.6,30.28,North,5,0.0,0.0,63,0.00,,,0.00,0.0,custom,2013-02-23 02:46:00,
2013-02-22 18:51:00,51.5,39.7,30.28,North,360,0.0,0.0,64,0.00,,,0.00,0.0,custom,2013-02-23 02:51:00,
2013-02-22 18:56:00,51.3,39.9,30.28,North,5,0.0,0.0,65,0.00,,,0.00,0.0,custom,2013-02-23 02:56:00,
2013-02-22 19:01:00,51.0,39.7,30.28,North,5,0.0,0.0,65,0.00,,,0.00,0.0,custom,2013-02-23 03:01:00,
2013-02-22 19:06:00,50.7,39.8,30.28,North,360,0.0,0.0,66,0.00,,,0.00,0.0,custom,2013-02-23 03:06:00,
2013-02-22 19:11:00,50.4,39.5,30.29,North,360,0.0,0.0,66,0.00,,,0.00,0.0,custom,2013-02-23 03:11:00,
2013-02-22 19:16:00,50.2,39.7,30.29,North,5,0.0,0.0,67,0.00,,,0.00,0.0,custom,2013-02-23 03:16:00,
2013-02-22 19:21:00,49.9,39.4,30.29,North,5,0.0,0.0,67,0.00,,,0.00,0.0,custom,2013-02-23 03:21:00,
2013-02-22 19:26:00,49.8,39.7,30.29,North,5,0.0,0.0,68,0.00,,,0.00,0.0,custom,2013-02-23 03:26:00,
2013-02-22 19:31:00,49.5,39.4,30.29,North,5,0.0,0.0,68,0.00,,,0.00,0.0,custom,2013-02-23 03:31:00,
2013-02-22 19:36:00,49.3,39.2,30.30,North,5,0.0,0.0,68,0.00,,,0.00,0.0,custom,2013-02-23 03:36:00,
2013-02-22 19:41:00,49.2,39.5,30.30,North,360,0.0,0.0,69,0.00,,,0.00,0.0,custom,2013-02-23 03:41:00,
2013-02-22 19:46:00,49.0,39.3,30.30,North,360,0.0,0.0,69,0.00,,,0.00,0.0,custom,2013-02-23 03:46:00,
2013-02-22 19:51:00,48.8,39.5,30.30,North,5,0.0,0.0,70,0.00,,,0.00,0.0,custom,2013-02-23 03:51:00,
2013-02-22 19:56:00,48.6,39.3,30.30,North,5,0.0,0.0,70,0.00,,,0.00,0.0,custom,2013-02-23 03:56:00,
2013-02-22 20:01:00,48.3,39.3,30.30,North,5,0.0,0.0,71,0.00,,,0.00,0.0,custom,2013-02-23 04:01:00,
2013-02-22 20:06:00,48.1,39.5,30.30,North,360,0.0,0.0,72,0.00,,,0.00,0.0,custom,2013-02-23 04:06:00,
2013-02-22 20:11:00,47.9,39.7,30.31,North,5,0.0,0.0,73,0.00,,,0.00,0.0,custom,2013-02-23 04:11:00,
2013-02-22 20:16:00,47.8,39.6,30.30,North,9,0.0,0.0,73,0.00,,,0.00,0.0,custom,2013-02-23 04:16:00,
2013-02-22 20:21:00,47.8,39.6,30.31,North,9,0.0,0.0,73,0.00,,,0.00,0.0,custom,2013-02-23 04:21:00,
2013-02-22 20:26:00,47.7,39.8,30.31,North,9,0.0,0.0,74,0.00,,,0.00,0.0,custom,2013-02-23 04:26:00,
2013-02-22 20:31:00,47.6,39.7,30.31,North,9,0.0,0.0,74,0.00,,,0.00,0.0,custom,2013-02-23 04:31:00,
2013-02-22 20:36:00,47.5,40.0,30.30,North,9,0.0,0.0,75,0.00,,,0.00,0.0,custom,2013-02-23 04:36:00,
2013-02-22 20:41:00,47.4,40.2,30.29,North,11,0.0,0.0,76,0.00,,,0.00,0.0,custom,2013-02-23 04:41:00,
2013-02-22 20:46:00,47.5,40.3,30.30,North,11,0.0,0.0,76,0.00,,,0.00,0.0,custom,2013-02-23 04:46:00,
2013-02-22 20:51:00,47.5,40.3,30.29,North,11,0.0,0.0,76,0.00,,,0.00,0.0,custom,2013-02-23 04:51:00,
2013-02-22 20:56:00,47.5,40.7,30.29,North,11,0.0,0.0,77,0.00,,,0.00,0.0,custom,2013-02-23 04:56:00,
2013-02-22 21:01:00,47.6,40.8,30.29,North,11,0.0,0.0,77,0.00,,,0.00,0.0,custom,2013-02-23 05:01:00,
2013-02-22 21:06:00,47.7,41.5,30.29,SSE,166,0.0,0.0,79,0.00,,,0.00,0.0,custom,2013-02-23 05:06:00,
2013-02-22 21:11:00,47.9,42.0,30.29,SSE,166,0.0,0.0,80,0.00,,,0.00,0.0,custom,2013-02-23 05:11:00,
2013-02-22 21:16:00,48.1,41.9,30.29,SSE,166,0.0,0.0,79,0.00,,,0.00,0.0,custom,2013-02-23 05:16:00,
2013-02-22 21:21:00,48.2,42.3,30.30,SSE,165,0.0,0.0,80,0.00,,,0.00,0.0,custom,2013-02-23 05:21:00,
2013-02-22 21:26:00,48.3,42.4,30.31,SSE,158,0.0,0.0,80,0.00,,,0.00,0.0,custom,2013-02-23 05:26:00,
2013-02-22 21:31:00,48.4,42.8,30.31,SSE,158,0.0,0.0,81,0.00,,,0.00,0.0,custom,2013-02-23 05:31:00,
2013-02-22 21:36:00,48.5,42.6,30.32,SSE,159,0.0,0.0,80,0.00,,,0.00,0.0,custom,2013-02-23 05:36:00,
2013-02-22 21:41:00,48.6,43.0,30.32,SSE,159,0.0,0.0,81,0.00,,,0.00,0.0,custom,2013-02-23 05:41:00,
2013-02-22 21:46:00,48.6,42.7,30.32,SSE,159,0.0,0.0,80,0.00,,,0.00,0.0,custom,2013-02-23 05:46:00,
2013-02-22 21:51:00,48.6,42.7,30.33,SSE,159,0.0,0.0,80,0.00,,,0.00,0.0,custom,2013-02-23 05:51:00,
2013-02-22 21:56:00,48.5,42.6,30.33,SSE,159,0.0,0.0,80,0.00,,,0.00,0.0,custom,2013-02-23 05:56:00,
2013-02-22 22:01:00,48.4,42.5,30.33,SSE,159,0.0,0.0,80,0.00,,,0.00,0.0,custom,2013-02-23 06:01:00,
2013-02-22 22:06:00,48.3,42.7,30.34,SSE,159,0.0,0.0,81,0.00,,,0.00,0.0,custom,2013-02-23 06:06:00,
2013-02-22 22:11:00,48.1,42.5,30.33,SSE,159,0.0,0.0,81,0.00,,,0.00,0.0,custom,2013-02-23 06:11:00,
2013-02-22 22:16:00,47.9,42.4,30.33,SSE,159,0.0,0.0,81,0.00,,,0.00,0.0,custom,2013-02-23 06:16:00,
2013-02-22 22:21:00,47.8,42.6,30.33,SSE,159,0.0,0.0,82,0.00,,,0.00,0.0,custom,2013-02-23 06:21:00,
2013-02-22 22:26:00,47.7,42.5,30.33,SSE,158,0.0,0.0,82,0.00,,,0.00,0.0,custom,2013-02-23 06:26:00,
2013-02-22 22:36:00,47.5,42.6,30.33,SSE,159,0.0,0.0,83,0.00,,,0.00,0.0,custom,2013-02-23 06:36:00,
2013-02-22 22:41:00,47.6,42.7,30.33,SSE,158,0.0,0.0,83,0.00,,,0.00,0.0,custom,2013-02-23 06:41:00,
2013-02-22 22:46:00,47.7,42.8,30.34,SSE,159,0.0,0.0,83,0.00,,,0.00,0.0,custom,2013-02-23 06:46:00,
2013-02-22 22:51:00,47.8,42.9,30.33,SSE,159,0.0,0.0,83,0.00,,,0.00,0.0,custom,2013-02-23 06:51:00,
2013-02-22 22:56:00,47.8,42.6,30.34,SSE,159,0.0,0.0,82,0.00,,,0.00,0.0,custom,2013-02-23 06:56:00,
2013-02-22 23:01:00,47.9,42.7,30.34,SSE,159,0.0,0.0,82,0.00,,,0.00,0.0,custom,2013-02-23 07:01:00,
2013-02-22 23:06:00,47.9,42.7,30.34,SSE,159,0.0,0.0,82,0.00,,,0.00,0.0,custom,2013-02-23 07:06:00,
2013-02-22 23:11:00,47.9,42.7,30.34,SSE,159,0.0,0.0,82,0.00,,,0.00,0.0,custom,2013-02-23 07:11:00,
2013-02-22 23:16:00,48.0,42.8,30.34,SSE,159,0.0,0.0,82,0.00,,,0.00,0.0,custom,2013-02-23 07:16:00,
2013-02-22 23:21:00,48.1,42.9,30.34,SSE,159,0.0,0.0,82,0.00,,,0.00,0.0,custom,2013-02-23 07:21:00,
2013-02-22 23:26:00,48.1,42.9,30.33,SSE,159,0.0,0.0,82,0.00,,,0.00,0.0,custom,2013-02-23 07:26:00,
2013-02-22 23:31:00,48.0,42.8,30.34,SSE,159,0.0,0.0,82,0.00,,,0.00,0.0,custom,2013-02-23 07:31:00,
2013-02-22 23:36:00,47.9,42.7,30.33,SSE,159,0.0,0.0,82,0.00,,,0.00,0.0,custom,2013-02-23 07:36:00,
2013-02-22 23:41:00,47.8,42.6,30.33,SSE,159,0.0,0.0,82,0.00,,,0.00,0.0,custom,2013-02-23 07:41:00,
2013-02-22 23:46:00,47.6,42.4,30.33,SSE,159,0.0,0.0,82,0.00,,,0.00,0.0,custom,2013-02-23 07:46:00,
2013-02-22 23:51:00,47.3,42.1,30.33,SSE,159,0.0,0.0,82,0.00,,,0.00,0.0,custom,2013-02-23 07:51:00,
2013-02-22 23:56:00,47.1,42.2,30.34,SSE,159,0.0,0.0,83,0.00,,,0.00,0.0,custom,2013-02-23 07:56:00,